Time;durP1;ratioP1;P1;durP2;ratioP2;P2;SDS_P1;SDS_P2;PMS_P1;PMS_P2;Temp;Humidity;BMP_temperature;BMP_pressure;BME280_temperature;BME280_humidity;BME280_pressure;Samples;Min_cycle;Max_cycle;Signal;HPM_P1;HPM_P2
2021/06/23 00:01:18;;;;;;;1.13;0.73;;;18.60;61.60;;;;;;20753834;28;20395;-62
2021/06/23 00:11:21;;;;;;;0.88;0.50;;;18.70;59.70;;;;;;20753493;28;20050;-62
2021/06/23 00:21:22;;;;;;;0.70;0.47;;;18.70;59.00;;;;;;20751858;28;20061;-64
2021/06/23 00:31:24;;;;;;;1.17;0.52;;;18.70;58.70;;;;;;20750445;28;20046;-64
2021/06/23 00:41:25;;;;;;;0.85;0.38;;;18.60;58.90;;;;;;20750119;28;20050;-65
2021/06/23 00:51:27;;;;;;;1.63;0.38;;;18.60;59.00;;;;;;20750721;28;20070;-66
2021/06/23 01:01:31;;;;;;;0.40;0.30;;;18.60;59.10;;;;;;20750005;28;20057;-60
2021/06/23 01:11:45;;;;;;;0.50;0.38;;;18.50;59.20;;;;;;20748838;28;20045;-60
2021/06/23 01:21:46;;;;;;;0.85;0.40;;;18.50;59.40;;;;;;20749396;28;20494;-62
2021/06/23 01:31:47;;;;;;;0.77;0.40;;;18.40;59.60;;;;;;20748405;28;20046;-60
2021/06/23 01:41:49;;;;;;;0.47;0.30;;;18.40;59.60;;;;;;20749691;28;20057;-60
2021/06/23 01:51:50;;;;;;;0.35;0.35;;;18.30;60.00;;;;;;20764395;28;20049;-59
2021/06/23 02:02:20;;;;;;;0.35;0.35;;;18.30;60.10;;;;;;20763034;28;20077;-64
2021/06/23 02:12:24;;;;;;;0.20;0.20;;;18.40;60.20;;;;;;20762183;28;20081;-63
2021/06/23 02:22:30;;;;;;;0.40;0.30;;;18.20;60.70;;;;;;20761155;28;20057;-61
2021/06/23 02:32:34;;;;;;;0.40;0.30;;;18.30;60.50;;;;;;20759414;28;20050;-60
2021/06/23 02:42:36;;;;;;;0.35;0.30;;;18.20;60.20;;;;;;20759916;28;20060;-61
2021/06/23 02:52:37;;;;;;;0.93;0.40;;;18.20;60.30;;;;;;20759009;28;20467;-63
2021/06/23 03:02:40;;;;;;;0.43;0.40;;;18.20;60.40;;;;;;20757893;28;20504;-66
2021/06/23 03:12:43;;;;;;;0.35;0.32;;;18.30;61.00;;;;;;20757288;28;20049;-65
2021/06/23 03:22:47;;;;;;;0.60;0.38;;;18.20;61.40;;;;;;20757000;28;20053;-65
2021/06/23 03:32:50;;;;;;;1.25;0.55;;;18.20;59.50;;;;;;20756504;28;20128;-62
2021/06/23 03:42:52;;;;;;;2.23;0.60;;;18.20;60.60;;;;;;20755202;28;20050;-66
2021/06/23 03:52:55;;;;;;;0.73;0.40;;;18.20;61.90;;;;;;20754742;28;20478;-64
2021/06/23 04:02:59;;;;;;;1.58;0.60;;;18.10;62.30;;;;;;20754297;28;20479;-63
2021/06/23 04:13:02;;;;;;;1.73;0.50;;;18.00;62.80;;;;;;20752352;28;20073;-65
2021/06/23 04:23:06;;;;;;;0.40;0.30;;;17.90;63.00;;;;;;20752009;28;20053;-67
2021/06/23 04:33:09;;;;;;;1.17;0.60;;;17.90;60.50;;;;;;20752295;28;20092;-66
2021/06/23 04:43:11;;;;;;;2.10;0.50;;;18.00;62.00;;;;;;20751752;28;20049;-65
2021/06/23 04:53:17;;;;;;;2.92;0.70;;;18.00;61.90;;;;;;20751672;28;20061;-65
2021/06/23 05:03:19;;;;;;;5.15;2.28;;;17.90;62.70;;;;;;20749125;28;20140;-64
2021/06/23 05:13:22;;;;;;;2.45;0.80;;;17.80;62.90;;;;;;20748584;28;20151;-64
2021/06/23 05:23:24;;;;;;;2.70;1.00;;;17.80;62.60;;;;;;20747887;28;20590;-66
2021/06/23 05:33:26;;;;;;;1.23;0.63;;;18.00;62.30;;;;;;20747508;28;20046;-64
2021/06/23 05:43:28;;;;;;;3.80;1.05;;;18.10;62.20;;;;;;20747844;28;20061;-64
2021/06/23 05:53:30;;;;;;;2.13;0.68;;;18.00;62.30;;;;;;20746275;28;20057;-65
2021/06/23 06:03:36;;;;;;;4.68;0.80;;;18.00;62.20;;;;;;20746602;28;20054;-65
2021/06/23 06:13:38;;;;;;;1.13;0.73;;;18.00;60.50;;;;;;20747253;28;20502;-65
2021/06/23 06:23:40;;;;;;;1.67;0.60;;;18.10;58.50;;;;;;20747058;28;20509;-66
2021/06/23 06:33:43;;;;;;;2.38;0.90;;;18.40;57.30;;;;;;20754645;28;20050;-63
2021/06/23 06:43:45;;;;;;;1.40;0.70;;;18.50;56.60;;;;;;20759815;28;20050;-65
2021/06/23 06:53:47;;;;;;;1.33;0.60;;;18.50;56.50;;;;;;20759990;28;20128;-66
2021/06/23 07:03:49;;;;;;;1.42;0.63;;;18.60;56.40;;;;;;20757634;28;20056;-64
2021/06/23 07:13:53;;;;;;;3.28;0.90;;;18.90;55.20;;;;;;20757321;28;20054;-64
2021/06/23 07:23:58;;;;;;;1.80;0.80;;;19.30;54.10;;;;;;20756353;28;20053;-65
2021/06/23 07:44:17;;;;;;;2.45;0.57;;;19.70;53.30;;;;;;20754768;28;20068;-63
2021/06/23 08:14:45;;;;;;;1.25;0.40;;;21.80;46.40;;;;;;20753017;28;20058;-65
2021/06/23 08:24:47;;;;;;;1.63;0.50;;;22.40;44.90;;;;;;20751650;28;20058;-64
2021/06/23 08:34:51;;;;;;;16.13;3.60;;;22.70;43.80;;;;;;20750550;28;20050;-61
2021/06/23 08:44:55;;;;;;;2.35;0.47;;;23.10;43.00;;;;;;20749736;28;20050;-61
2021/06/23 08:54:57;;;;;;;4.32;1.40;;;23.20;42.00;;;;;;20749409;28;20084;-62
2021/06/23 09:05:12;;;;;;;2.13;0.35;;;23.50;41.50;;;;;;20749992;28;20049;-63
2021/06/23 09:15:35;;;;;;;0.63;0.40;;;23.80;40.80;;;;;;20748639;28;20108;-59
2021/06/23 09:25:38;;;;;;;1.65;0.70;;;24.00;39.90;;;;;;20747791;28;20050;-63
2021/06/23 09:35:44;;;;;;;1.52;0.35;;;24.30;39.40;;;;;;20747696;28;20050;-65
2021/06/23 09:45:53;;;;;;;2.38;0.40;;;24.20;39.30;;;;;;20747744;28;20050;-65
2021/06/23 09:55:55;;;;;;;0.85;0.40;;;24.20;39.10;;;;;;20748510;28;20042;-59
2021/06/23 10:05:57;;;;;;;1.80;0.50;;;24.50;38.40;;;;;;20752774;28;20085;-61
2021/06/23 10:15:58;;;;;;;4.75;0.57;;;24.70;37.30;;;;;;20761816;28;20136;-62
2021/06/23 10:26:01;;;;;;;3.80;0.67;;;24.80;37.10;;;;;;20759578;28;20054;-62
2021/06/23 10:36:03;;;;;;;86.30;13.48;;;24.60;38.00;;;;;;20760051;28;20475;-60
2021/06/23 10:46:04;;;;;;;13.30;1.80;;;24.40;37.90;;;;;;20758733;28;20129;-60
2021/06/23 10:56:05;;;;;;;4.77;0.77;;;24.40;40.20;;;;;;20753520;28;20050;-59
2021/06/23 11:06:08;;;;;;;10.00;1.07;;;24.70;39.10;;;;;;20755439;28;20081;-60
2021/06/23 11:16:29;;;;;;;6.47;0.88;;;24.80;38.70;;;;;;20753644;28;20145;-61
2021/06/23 11:26:31;;;;;;;3.28;0.93;;;24.70;38.30;;;;;;20754223;28;20141;-65
2021/06/23 11:36:33;;;;;;;3.30;0.93;;;24.80;37.70;;;;;;20753691;28;20169;-59
2021/06/23 11:46:35;;;;;;;4.07;0.70;;;25.10;37.00;;;;;;20754656;28;20141;-63
2021/06/23 11:56:38;;;;;;;5.25;1.38;;;25.20;36.00;;;;;;20753445;28;20123;-67
2021/06/23 12:06:42;;;;;;;0.77;0.55;;;25.10;35.70;;;;;;20753077;28;20056;-67
2021/06/23 12:16:45;;;;;;;2.60;0.70;;;24.70;36.50;;;;;;20755184;28;20103;-69
2021/06/23 12:26:48;;;;;;;2.70;0.80;;;24.50;37.10;;;;;;20750435;28;20057;-69
2021/06/23 12:36:53;;;;;;;1.90;0.60;;;24.60;36.70;;;;;;20749302;28;20107;-67
2021/06/23 12:46:55;;;;;;;5.20;0.93;;;24.50;36.70;;;;;;20749963;28;20449;-62
2021/06/23 12:56:59;;;;;;;1.20;0.70;;;24.30;37.00;;;;;;20667913;28;20072;-61
2021/06/23 13:07:01;;;;;;;3.47;0.70;;;24.20;37.30;;;;;;20667450;28;20101;-60
2021/06/23 13:17:04;;;;;;;1.20;0.60;;;24.30;37.00;;;;;;20667558;28;20060;-61
2021/06/23 13:27:07;;;;;;;2.40;0.98;;;24.40;36.70;;;;;;20666680;28;20050;-60
2021/06/23 13:37:09;;;;;;;2.95;0.73;;;24.30;36.30;;;;;;20667597;28;20046;-62
2021/06/23 13:47:12;;;;;;;3.15;0.90;;;24.80;35.30;;;;;;20682708;28;20058;-67
2021/06/23 13:57:14;;;;;;;2.50;0.75;;;25.00;35.00;;;;;;20682207;28;20494;-59
2021/06/23 14:07:16;;;;;;;4.80;2.80;;;25.00;34.50;;;;;;20681584;28;20415;-66
2021/06/23 14:17:18;;;;;;;;;;;25.10;33.90;;;;;;20680745;28;20089;-65
2021/06/23 14:27:20;;;;;;;5.28;0.82;;;24.90;33.70;;;;;;20679320;28;19922;-68
2021/06/23 14:37:22;;;;;;;1.77;0.75;;;24.90;34.30;;;;;;20679178;28;20176;-68
2021/06/23 14:47:24;;;;;;;0.73;0.43;;;24.70;35.10;;;;;;20678314;28;20411;-69
2021/06/23 14:57:26;;;;;;;2.20;0.70;;;24.60;34.90;;;;;;20682086;28;20047;-63
2021/06/23 15:07:28;;;;;;;3.30;0.80;;;24.50;35.30;;;;;;20677039;28;20506;-65
2021/06/23 15:17:29;;;;;;;0.90;0.65;;;24.60;34.60;;;;;;20676434;28;20053;-63
2021/06/23 15:27:32;;;;;;;;;;;24.80;34.50;;;;;;20676578;28;20056;-68
2021/06/23 15:37:34;;;;;;;0.60;0.50;;;24.80;33.90;;;;;;20674982;28;20374;-69
2021/06/23 15:47:36;;;;;;;3.25;0.70;;;24.80;34.00;;;;;;20674148;28;20077;-63
2021/06/23 15:57:39;;;;;;;2.55;0.70;;;24.90;33.80;;;;;;20672572;28;20050;-68
2021/06/23 16:07:42;;;;;;;7.35;6.15;;;24.70;33.70;;;;;;20673169;28;20505;-68
2021/06/23 16:17:45;;;;;;;2.42;0.45;;;24.90;33.50;;;;;;20671021;28;20070;-62
2021/06/23 16:27:46;;;;;;;0.75;0.30;;;25.10;32.10;;;;;;20671131;28;20050;-68
2021/06/23 16:37:48;;;;;;;0.82;0.45;;;25.10;31.70;;;;;;20670044;28;20042;-62
2021/06/23 16:47:52;;;;;;;;;;;25.30;32.00;;;;;;20671084;28;20391;-68
2021/06/23 16:57:53;;;;;;;1.55;0.50;;;25.20;32.70;;;;;;20667667;28;20335;-67
2021/06/23 17:07:55;;;;;;;1.23;0.50;;;25.10;33.00;;;;;;20666092;28;20090;-67
2021/06/23 17:17:58;;;;;;;1.05;0.40;;;25.00;33.20;;;;;;20664570;28;20051;-68
2021/06/23 17:28:00;;;;;;;5.38;0.63;;;24.90;33.20;;;;;;20665468;28;20046;-68
2021/06/23 17:38:02;;;;;;;1.52;0.70;;;24.70;33.50;;;;;;20665115;28;20065;-69
2021/06/23 17:48:04;;;;;;;3.13;0.63;;;24.90;33.50;;;;;;20665821;28;20050;-68
2021/06/23 17:58:06;;;;;;;1.63;0.55;;;24.80;33.60;;;;;;20665644;28;20391;-65
2021/06/23 18:08:08;;;;;;;0.88;0.50;;;24.90;33.50;;;;;;20662240;28;20407;-69
2021/06/23 18:18:11;;;;;;;1.33;0.73;;;24.70;33.40;;;;;;20664069;28;20495;-70
2021/06/23 18:28:12;;;;;;;1.52;1.13;;;24.70;33.60;;;;;;20669409;28;20579;-64
2021/06/23 18:38:14;;;;;;;1.08;0.60;;;24.70;33.20;;;;;;20676614;28;20042;-60
2021/06/23 18:48:16;;;;;;;;;;;24.60;33.40;;;;;;20676128;28;20046;-62
2021/06/23 18:58:18;;;;;;;4.40;3.10;;;24.40;33.50;;;;;;20675236;28;19921;-68
2021/06/23 19:08:20;;;;;;;3.92;1.45;;;24.50;33.10;;;;;;20674667;28;20411;-66
2021/06/23 19:18:22;;;;;;;6.83;2.90;;;24.40;32.90;;;;;;20674473;28;20060;-68
2021/06/23 19:28:23;;;;;;;2.67;1.65;;;24.20;32.60;;;;;;20672474;28;20407;-70
2021/06/23 19:38:27;;;;;;;2.73;1.73;;;24.00;32.80;;;;;;20671818;28;20407;-70
2021/06/23 19:48:29;;;;;;;1.52;0.85;;;23.90;32.90;;;;;;20671743;28;20090;-68
2021/06/23 19:58:33;;;;;;;1.73;0.95;;;23.70;33.10;;;;;;20672401;28;20051;-67
2021/06/23 20:08:34;;;;;;;1.30;0.80;;;23.50;34.30;;;;;;20673424;28;20061;-68
2021/06/23 20:18:37;;;;;;;4.67;1.17;;;23.30;34.40;;;;;;20696872;28;20077;-66
2021/06/23 20:28:39;;;;;;;2.97;1.00;;;23.30;33.10;;;;;;20677924;28;20086;-64
2021/06/23 20:38:43;;;;;;;2.07;1.17;;;23.10;32.10;;;;;;20671331;28;20046;-63
2021/06/23 20:48:45;;;;;;;5.30;1.00;;;22.90;31.50;;;;;;20668629;28;20311;-68
2021/06/23 20:58:47;;;;;;;2.37;1.10;;;22.80;32.50;;;;;;20669017;28;20415;-69
2021/06/23 21:08:52;;;;;;;3.13;0.90;;;22.60;34.70;;;;;;20666667;28;20062;-63
2021/06/23 21:18:54;;;;;;;2.15;0.88;;;22.50;34.80;;;;;;20667604;28;20125;-62
2021/06/23 21:29:01;;;;;;;2.58;1.45;;;22.40;36.20;;;;;;20667362;28;20414;-63
2021/06/23 21:39:07;;;;;;;2.45;0.80;;;22.20;37.30;;;;;;20666687;28;20402;-66
2021/06/23 21:49:16;;;;;;;3.67;1.50;;;22.10;37.80;;;;;;20665920;28;20073;-67
2021/06/23 21:59:33;;;;;;;0.85;0.60;;;22.00;38.00;;;;;;20668137;28;20054;-69
2021/06/23 22:09:42;;;;;;;1.98;0.80;;;21.80;37.70;;;;;;20681808;28;20050;-69
2021/06/23 22:19:44;;;;;;;2.30;0.70;;;21.60;38.00;;;;;;20679591;28;20061;-69
2021/06/23 22:29:46;;;;;;;3.50;0.75;;;21.40;38.30;;;;;;20680988;28;20062;-64
2021/06/23 22:39:51;;;;;;;1.23;0.70;;;21.30;38.60;;;;;;20679315;28;20088;-67
2021/06/23 22:50:08;;;;;;;2.05;0.90;;;21.20;38.90;;;;;;20679293;28;20065;-64
2021/06/23 23:00:10;;;;;;;2.20;0.90;;;20.90;39.30;;;;;;20678953;28;20050;-69
2021/06/23 23:10:12;;;;;;;6.13;0.87;;;20.70;40.10;;;;;;20676111;28;20061;-68
2021/06/23 23:20:13;;;;;;;15.00;2.33;;;20.60;40.90;;;;;;20676169;28;20426;-69
2021/06/23 23:30:16;;;;;;;2.22;0.88;;;20.30;44.00;;;;;;20675270;28;20100;-67
2021/06/23 23:40:18;;;;;;;1.40;0.82;;;20.10;43.70;;;;;;20674454;28;20050;-71
2021/06/23 23:50:19;;;;;;;1.50;0.80;;;19.90;43.70;;;;;;20680939;28;20054;-68
